首页
METAR-TAF:

METAR-TAF

机场 :

多尼戈爾, 爱尔兰

纬度: 55-02-39N, 经度: 8-20-28W, 海拔: 9米

当前天气观测

该预报发布于16分钟前的13:00 UTC
风速4节,风向西
温度 12°C
湿度 71%
气压 1001 hPa
能见度10公里或以上
1500米以下无云,无积雨云

METAR: EIDL 231300Z 27004KT CAVOK 12/07 Q1001

时间: 14:16 (13:16 UTC)

预报

该预报发布于2小时和16分钟前的11:00 UTC
预报有效从23日的 12点(UTC)到 23日的 21点(UTC)
风速5节,风向西转西南
能见度10公里或以上
少量云层高于3000英尺
短暂存在
从 23日的 12点(UTC)到 23日的 20点(UTC)
散云层高于2000英尺, 积雨云.
小阵雨
几率 30% :
短暂存在
从 23日的 12点(UTC)到 23日的 20点(UTC)
能見度: 4000
阵雨
成为
从 23日的 19点(UTC)到 23日的 21点(UTC)
风速10节,风向东转东南

TAF: EIDL 231100Z 2312/2321 24005KT 9999 FEW030 TEMPO 2312/2320 -SHRA SCT020CB PROB30 TEMPO 2312/2320 4000 SHRA BECMG 2319/2321 11010KT

超过4000个机场的气象观测和天气预报(METAR&TAF报告)。

可查询的气象台以黄色和红色小点在地图上表示。

将鼠标移到小点上方,可查看气象台名称。

然后点击查看天气观测和预报。

如需切换地图:点击带黑十字的绿色按钮放大地图;点击带横线的绿色按钮缩小地图;或者点击绿色箭头查看邻近地区的地图。


METAR-TAF: